Aviation Digital Data Service (ADDS)

Output produced by METARs form (0827 UTC 13 August 2022)
found at http://www.aviationweather.gov/metar/data/
 
EDDK 130820Z AUTO 16006KT 080V210 CAVOK 26/10 Q1018 NOSIG
EDDK 130750Z AUTO VRB02KT CAVOK 26/10 Q1018 NOSIG
EDDK 130720Z AUTO 09004KT 050V150 CAVOK 24/10 Q1018 NOSIG
EDDK 130650Z AUTO 13003KT 070V190 CAVOK 23/10 Q1018 NOSIG
EDDK 130620Z AUTO 17003KT CAVOK 21/10 Q1017 NOSIG
EDDK 130550Z AUTO 15003KT 110V180 CAVOK 18/10 Q1017
EDDK 130520Z AUTO 14004KT CAVOK 16/10 Q1017 NOSIG
EDDK 130450Z AUTO 12003KT 070V170 CAVOK 16/09 Q1017 NOSIG
TAF EDDK 130500Z 1306/1412 11006KT CAVOK
       
EDGS 130820Z 07006KT 030V100 CAVOK 21/09 Q1020
EDGS 130750Z 08006KT 040V100 CAVOK 20/09 Q1020
EDGS 130720Z 06006KT CAVOK 19/09 Q1020
EDGS 130650Z 07005KT CAVOK 19/09 Q1019
EDGS 130620Z 07004KT 040V100 CAVOK 19/09 Q1019
EDGS 130550Z 07004KT CAVOK 18/08 Q1019
EDGS 130520Z 08002KT CAVOK 17/07 Q1019
TAF EDGS 130800Z 1309/1318 08008KT CAVOK
       
EDLW 130820Z VRB03KT CAVOK 26/12 Q1018
EDLW 130750Z 06003KT 010V110 CAVOK 25/11 Q1018
EDLW 130720Z 09004KT 050V120 CAVOK 24/10 Q1018
EDLW 130650Z 12003KT 070V160 CAVOK 22/10 Q1018
EDLW 130620Z 10003KT CAVOK 21/10 Q1018
EDLW 130550Z 00000KT CAVOK 19/10 Q1018
EDLW 130520Z 11002KT CAVOK 16/09 Q1017
EDLW 130450Z 08003KT CAVOK 17/09 Q1017
TAF EDLW 130500Z 1306/1406 VRB03KT CAVOK 
     BECMG 1307/1310 07008KT 
     TEMPO 1322/1406 VRB03KT
       
EDDL 130820Z AUTO 13005KT 090V210 CAVOK 27/09 Q1017 BECMG 07008KT
EDDL 130750Z AUTO 14009KT CAVOK 26/10 Q1017 NOSIG
EDDL 130720Z AUTO 13006KT 090V170 CAVOK 25/10 Q1017 NOSIG
EDDL 130650Z AUTO VRB02KT CAVOK 24/11 Q1017 NOSIG
EDDL 130620Z AUTO VRB02KT CAVOK 21/11 Q1017 NOSIG
EDDL 130550Z AUTO VRB02KT CAVOK 18/11 Q1017
EDDL 130520Z AUTO VRB02KT CAVOK 17/11 Q1017 NOSIG
EDDL 130450Z AUTO 05003KT CAVOK 15/10 Q1017 NOSIG
TAF EDDL 130500Z 1306/1412 08005KT CAVOK 
     TEMPO 1306/1309 VRB03KT 
     TEMPO 1310/1318 07010KT 
     TEMPO 1400/1406 VRB03KT 
     TEMPO 1409/1412 12010KT
       
ETNN 130820Z 09007KT 9999 26/08 Q1017 BLU+
ETNN 130720Z 10006KT 9999 23/09 Q1017 BLU+
ETNN 130620Z 12002KT 9999 21/08 Q1017 BLU+
ETNN 130520Z 15002KT 9999 17/09 Q1017 BLU+